sensor_id;sensor_type;location;lat;lon;timestamp;temperature;humidity
7159;DHT22;63175;52.374;13.132;2023-03-23T00:00:59;13.30;96.90
7159;DHT22;63175;52.374;13.132;2023-03-23T00:03:27;13.20;97.00
7159;DHT22;63175;52.374;13.132;2023-03-23T00:05:54;13.20;97.50
7159;DHT22;63175;52.374;13.132;2023-03-23T00:08:26;13.20;97.50
7159;DHT22;63175;52.374;13.132;2023-03-23T00:10:53;13.10;97.60
7159;DHT22;63175;52.374;13.132;2023-03-23T00:13:22;13.10;97.80
7159;DHT22;63175;52.374;13.132;2023-03-23T00:15:49;13.00;97.90
7159;DHT22;63175;52.374;13.132;2023-03-23T00:18:18;13.00;98.30
7159;DHT22;63175;52.374;13.132;2023-03-23T00:20:49;12.90;98.20
7159;DHT22;63175;52.374;13.132;2023-03-23T00:23:16;12.90;98.40
7159;DHT22;63175;52.374;13.132;2023-03-23T00:25:47;12.90;98.60
7159;DHT22;63175;52.374;13.132;2023-03-23T00:28:15;12.90;98.80
7159;DHT22;63175;52.374;13.132;2023-03-23T00:30:42;12.80;98.90
7159;DHT22;63175;52.374;13.132;2023-03-23T00:33:10;12.80;99.10
7159;DHT22;63175;52.374;13.132;2023-03-23T00:35:40;12.80;99.20
7159;DHT22;63175;52.374;13.132;2023-03-23T00:38:10;12.80;99.40
7159;DHT22;63175;52.374;13.132;2023-03-23T00:40:36;12.70;99.50
7159;DHT22;63175;52.374;13.132;2023-03-23T00:43:05;12.70;99.60
7159;DHT22;63175;52.374;13.132;2023-03-23T00:45:32;12.70;99.80
7159;DHT22;63175;52.374;13.132;2023-03-23T00:48:00;12.70;99.90
7159;DHT22;63175;52.374;13.132;2023-03-23T00:50:29;12.70;99.90
7159;DHT22;63175;52.374;13.132;2023-03-23T00:52:56;12.60;99.90
7159;DHT22;63175;52.374;13.132;2023-03-23T00:55:24;12.60;99.90
7159;DHT22;63175;52.374;13.132;2023-03-23T00:57:51;12.60;99.90
7159;DHT22;63175;52.374;13.132;2023-03-23T01:00:21;12.60;99.90
7159;DHT22;63175;52.374;13.132;2023-03-23T01:02:49;12.60;99.90
7159;DHT22;63175;52.374;13.132;2023-03-23T01:05:17;12.60;99.90
7159;DHT22;63175;52.374;13.132;2023-03-23T01:07:44;12.50;99.90
7159;DHT22;63175;52.374;13.132;2023-03-23T01:10:12;12.50;99.90
7159;DHT22;63175;52.374;13.132;2023-03-23T01:12:42;12.50;99.90
7159;DHT22;63175;52.374;13.132;2023-03-23T01:15:12;12.50;99.90
7159;DHT22;63175;52.374;13.132;2023-03-23T01:17:41;12.50;99.90
7159;DHT22;63175;52.374;13.132;2023-03-23T01:20:08;12.40;99.90
7159;DHT22;63175;52.374;13.132;2023-03-23T01:22:36;12.40;99.90
7159;DHT22;63175;52.374;13.132;2023-03-23T01:25:03;12.40;99.90
7159;DHT22;63175;52.374;13.132;2023-03-23T01:27:30;12.40;99.90
7159;DHT22;63175;52.374;13.132;2023-03-23T01:29:57;12.40;99.90
7159;DHT22;63175;52.374;13.132;2023-03-23T01:32:24;12.40;99.90
7159;DHT22;63175;52.374;13.132;2023-03-23T01:34:52;12.30;99.90
7159;DHT22;63175;52.374;13.132;2023-03-23T01:37:19;12.30;99.90
7159;DHT22;63175;52.374;13.132;2023-03-23T01:39:51;12.30;99.90
7159;DHT22;63175;52.374;13.132;2023-03-23T01:42:20;12.30;99.90
7159;DHT22;63175;52.374;13.132;2023-03-23T01:47:57;12.20;99.90
7159;DHT22;63175;52.374;13.132;2023-03-23T01:50:29;12.20;99.90
7159;DHT22;63175;52.374;13.132;2023-03-23T01:52:58;12.20;99.90
7159;DHT22;63175;52.374;13.132;2023-03-23T01:55:26;12.20;99.90
7159;DHT22;63175;52.374;13.132;2023-03-23T01:57:55;12.20;99.90
7159;DHT22;63175;52.374;13.132;2023-03-23T02:00:22;12.20;99.90
7159;DHT22;63175;52.374;13.132;2023-03-23T02:02:52;12.10;99.90
7159;DHT22;63175;52.374;13.132;2023-03-23T02:05:25;12.10;99.90
7159;DHT22;63175;52.374;13.132;2023-03-23T02:07:57;12.10;99.90
7159;DHT22;63175;52.374;13.132;2023-03-23T02:10:28;12.10;99.90
7159;DHT22;63175;52.374;13.132;2023-03-23T02:12:55;12.10;99.90
7159;DHT22;63175;52.374;13.132;2023-03-23T02:15:23;12.10;99.90
7159;DHT22;63175;52.374;13.132;2023-03-23T02:17:57;12.10;99.90
7159;DHT22;63175;52.374;13.132;2023-03-23T02:20:47;12.10;99.90
7159;DHT22;63175;52.374;13.132;2023-03-23T02:23:37;12.10;99.90
7159;DHT22;63175;52.374;13.132;2023-03-23T02:26:25;12.20;99.90
7159;DHT22;63175;52.374;13.132;2023-03-23T02:29:13;12.20;99.90
7159;DHT22;63175;52.374;13.132;2023-03-23T02:34:41;12.30;99.90
7159;DHT22;63175;52.374;13.132;2023-03-23T02:37:11;12.30;99.90
7159;DHT22;63175;52.374;13.132;2023-03-23T02:39:43;12.40;99.90
7159;DHT22;63175;52.374;13.132;2023-03-23T02:42:14;12.40;99.90
7159;DHT22;63175;52.374;13.132;2023-03-23T02:44:44;12.40;99.90
7159;DHT22;63175;52.374;13.132;2023-03-23T02:47:16;12.50;99.90
7159;DHT22;63175;52.374;13.132;2023-03-23T02:49:46;12.50;99.90
7159;DHT22;63175;52.374;13.132;2023-03-23T02:52:17;12.50;99.90
7159;DHT22;63175;52.374;13.132;2023-03-23T02:54:47;12.50;99.90
7159;DHT22;63175;52.374;13.132;2023-03-23T02:57:15;12.60;99.90
7159;DHT22;63175;52.374;13.132;2023-03-23T02:59:42;12.60;99.90
7159;DHT22;63175;52.374;13.132;2023-03-23T03:02:11;12.60;99.90
7159;DHT22;63175;52.374;13.132;2023-03-23T03:04:40;12.60;99.90
7159;DHT22;63175;52.374;13.132;2023-03-23T03:07:24;12.60;99.90
7159;DHT22;63175;52.374;13.132;2023-03-23T03:09:58;12.60;99.90
7159;DHT22;63175;52.374;13.132;2023-03-23T03:12:33;12.60;99.90
7159;DHT22;63175;52.374;13.132;2023-03-23T03:15:09;12.60;99.90
7159;DHT22;63175;52.374;13.132;2023-03-23T03:17:42;12.60;99.90
7159;DHT22;63175;52.374;13.132;2023-03-23T03:20:12;12.60;99.90
7159;DHT22;63175;52.374;13.132;2023-03-23T03:22:43;12.60;99.90
7159;DHT22;63175;52.374;13.132;2023-03-23T03:25:12;12.60;99.90
7159;DHT22;63175;52.374;13.132;2023-03-23T03:27:41;12.60;99.90
7159;DHT22;63175;52.374;13.132;2023-03-23T03:30:13;12.60;99.90
7159;DHT22;63175;52.374;13.132;2023-03-23T03:32:44;12.60;99.90
7159;DHT22;63175;52.374;13.132;2023-03-23T03:35:14;12.60;99.90
7159;DHT22;63175;52.374;13.132;2023-03-23T03:37:42;12.60;99.90
7159;DHT22;63175;52.374;13.132;2023-03-23T03:40:13;12.70;99.90
7159;DHT22;63175;52.374;13.132;2023-03-23T03:42:43;12.60;99.90
7159;DHT22;63175;52.374;13.132;2023-03-23T03:45:11;12.70;99.90
7159;DHT22;63175;52.374;13.132;2023-03-23T03:47:38;12.60;99.90
7159;DHT22;63175;52.374;13.132;2023-03-23T03:50:06;12.70;99.90
7159;DHT22;63175;52.374;13.132;2023-03-23T03:52:34;12.70;99.90
7159;DHT22;63175;52.374;13.132;2023-03-23T03:55:03;12.70;99.90
7159;DHT22;63175;52.374;13.132;2023-03-23T03:57:30;12.70;99.90
7159;DHT22;63175;52.374;13.132;2023-03-23T03:59:57;12.60;99.90
7159;DHT22;63175;52.374;13.132;2023-03-23T04:02:23;12.60;99.90
7159;DHT22;63175;52.374;13.132;2023-03-23T04:04:50;12.60;99.90
7159;DHT22;63175;52.374;13.132;2023-03-23T04:07:18;12.60;99.90
7159;DHT22;63175;52.374;13.132;2023-03-23T04:09:47;12.60;99.90
7159;DHT22;63175;52.374;13.132;2023-03-23T04:12:15;12.60;99.90
7159;DHT22;63175;52.374;13.132;2023-03-23T04:14:42;12.60;99.90
7159;DHT22;63175;52.374;13.132;2023-03-23T04:17:09;12.60;99.90
7159;DHT22;63175;52.374;13.132;2023-03-23T04:19:36;12.60;99.90
7159;DHT22;63175;52.374;13.132;2023-03-23T04:22:04;12.60;99.90
7159;DHT22;63175;52.374;13.132;2023-03-23T04:24:31;12.60;99.90
7159;DHT22;63175;52.374;13.132;2023-03-23T04:26:59;12.60;99.90
7159;DHT22;63175;52.374;13.132;2023-03-23T04:29:28;12.60;99.90
7159;DHT22;63175;52.374;13.132;2023-03-23T04:31:55;12.60;99.90
7159;DHT22;63175;52.374;13.132;2023-03-23T04:34:22;12.60;99.90
7159;DHT22;63175;52.374;13.132;2023-03-23T04:36:49;12.60;99.90
7159;DHT22;63175;52.374;13.132;2023-03-23T04:39:17;12.60;99.90
7159;DHT22;63175;52.374;13.132;2023-03-23T04:41:44;12.60;99.90
7159;DHT22;63175;52.374;13.132;2023-03-23T04:44:11;12.60;99.90
7159;DHT22;63175;52.374;13.132;2023-03-23T04:46:44;12.60;99.90
7159;DHT22;63175;52.374;13.132;2023-03-23T04:49:15;12.60;99.90
7159;DHT22;63175;52.374;13.132;2023-03-23T04:51:47;12.50;99.90
7159;DHT22;63175;52.374;13.132;2023-03-23T04:54:16;12.50;99.90
7159;DHT22;63175;52.374;13.132;2023-03-23T04:56:43;12.50;99.90
7159;DHT22;63175;52.374;13.132;2023-03-23T04:59:10;12.50;99.90
7159;DHT22;63175;52.374;13.132;2023-03-23T05:01:39;12.50;99.90
7159;DHT22;63175;52.374;13.132;2023-03-23T05:04:12;12.50;99.90
7159;DHT22;63175;52.374;13.132;2023-03-23T05:06:42;12.40;99.90
7159;DHT22;63175;52.374;13.132;2023-03-23T05:09:10;12.40;99.90
7159;DHT22;63175;52.374;13.132;2023-03-23T05:11:38;12.40;99.90
7159;DHT22;63175;52.374;13.132;2023-03-23T05:14:05;12.40;99.90
7159;DHT22;63175;52.374;13.132;2023-03-23T05:16:32;12.40;99.90
7159;DHT22;63175;52.374;13.132;2023-03-23T05:19:02;12.30;99.90
7159;DHT22;63175;52.374;13.132;2023-03-23T05:21:31;12.40;99.90
7159;DHT22;63175;52.374;13.132;2023-03-23T05:23:58;12.30;99.90
7159;DHT22;63175;52.374;13.132;2023-03-23T05:26:26;12.30;99.90
7159;DHT22;63175;52.374;13.132;2023-03-23T05:28:55;12.30;99.90
7159;DHT22;63175;52.374;13.132;2023-03-23T05:31:22;12.30;99.90
7159;DHT22;63175;52.374;13.132;2023-03-23T05:33:51;12.30;99.90
7159;DHT22;63175;52.374;13.132;2023-03-23T05:36:18;12.30;99.90
7159;DHT22;63175;52.374;13.132;2023-03-23T05:38:46;12.30;99.90
7159;DHT22;63175;52.374;13.132;2023-03-23T05:41:15;12.30;99.90
7159;DHT22;63175;52.374;13.132;2023-03-23T05:43:42;12.30;99.90
7159;DHT22;63175;52.374;13.132;2023-03-23T05:46:09;12.20;99.90
7159;DHT22;63175;52.374;13.132;2023-03-23T05:48:35;12.20;99.90
7159;DHT22;63175;52.374;13.132;2023-03-23T05:51:04;12.20;99.90
7159;DHT22;63175;52.374;13.132;2023-03-23T05:53:31;12.20;99.90
7159;DHT22;63175;52.374;13.132;2023-03-23T05:56:02;12.10;99.90
7159;DHT22;63175;52.374;13.132;2023-03-23T05:58:30;12.10;99.90
7159;DHT22;63175;52.374;13.132;2023-03-23T06:00:57;12.10;99.90
7159;DHT22;63175;52.374;13.132;2023-03-23T06:03:24;12.00;99.90
7159;DHT22;63175;52.374;13.132;2023-03-23T06:05:50;12.00;99.90
7159;DHT22;63175;52.374;13.132;2023-03-23T06:08:17;11.90;99.90
7159;DHT22;63175;52.374;13.132;2023-03-23T06:10:44;11.90;99.90
7159;DHT22;63175;52.374;13.132;2023-03-23T06:13:12;11.80;99.90
7159;DHT22;63175;52.374;13.132;2023-03-23T06:15:39;11.80;99.90
7159;DHT22;63175;52.374;13.132;2023-03-23T06:18:07;11.80;99.90
7159;DHT22;63175;52.374;13.132;2023-03-23T06:20:34;11.80;99.90
7159;DHT22;63175;52.374;13.132;2023-03-23T06:23:01;11.80;99.90
7159;DHT22;63175;52.374;13.132;2023-03-23T06:25:29;11.70;99.90
7159;DHT22;63175;52.374;13.132;2023-03-23T06:27:56;11.70;99.90
7159;DHT22;63175;52.374;13.132;2023-03-23T06:30:24;11.80;99.90
7159;DHT22;63175;52.374;13.132;2023-03-23T06:32:52;11.70;99.90
7159;DHT22;63175;52.374;13.132;2023-03-23T06:35:19;11.80;99.90
7159;DHT22;63175;52.374;13.132;2023-03-23T06:37:46;11.80;99.90
7159;DHT22;63175;52.374;13.132;2023-03-23T06:40:13;11.80;99.90
7159;DHT22;63175;52.374;13.132;2023-03-23T06:42:44;11.80;99.90
7159;DHT22;63175;52.374;13.132;2023-03-23T06:45:11;11.80;99.90
7159;DHT22;63175;52.374;13.132;2023-03-23T06:47:39;11.90;99.90
7159;DHT22;63175;52.374;13.132;2023-03-23T06:50:07;11.90;99.90
7159;DHT22;63175;52.374;13.132;2023-03-23T06:52:34;11.90;99.90
7159;DHT22;63175;52.374;13.132;2023-03-23T06:55:01;12.00;99.90
7159;DHT22;63175;52.374;13.132;2023-03-23T06:57:28;12.00;99.90
7159;DHT22;63175;52.374;13.132;2023-03-23T06:59:54;12.00;99.90
7159;DHT22;63175;52.374;13.132;2023-03-23T07:02:21;12.00;99.90
7159;DHT22;63175;52.374;13.132;2023-03-23T07:04:51;12.10;99.90
7159;DHT22;63175;52.374;13.132;2023-03-23T07:07:19;12.10;99.90
7159;DHT22;63175;52.374;13.132;2023-03-23T07:09:46;12.00;99.90
7159;DHT22;63175;52.374;13.132;2023-03-23T07:12:13;12.00;99.90
7159;DHT22;63175;52.374;13.132;2023-03-23T07:14:41;12.00;99.90
7159;DHT22;63175;52.374;13.132;2023-03-23T07:17:08;12.00;99.90
7159;DHT22;63175;52.374;13.132;2023-03-23T07:19:34;12.00;99.90
7159;DHT22;63175;52.374;13.132;2023-03-23T07:22:04;12.00;99.90
7159;DHT22;63175;52.374;13.132;2023-03-23T07:24:31;12.00;99.90
7159;DHT22;63175;52.374;13.132;2023-03-23T07:26:58;12.00;99.90
7159;DHT22;63175;52.374;13.132;2023-03-23T07:29:26;12.00;99.90
7159;DHT22;63175;52.374;13.132;2023-03-23T07:31:53;12.00;99.90
7159;DHT22;63175;52.374;13.132;2023-03-23T07:34:20;12.00;99.90
7159;DHT22;63175;52.374;13.132;2023-03-23T07:36:47;12.00;99.90
7159;DHT22;63175;52.374;13.132;2023-03-23T07:39:16;12.10;99.90
7159;DHT22;63175;52.374;13.132;2023-03-23T07:41:42;12.10;99.90
7159;DHT22;63175;52.374;13.132;2023-03-23T07:44:09;12.20;99.90
7159;DHT22;63175;52.374;13.132;2023-03-23T07:46:36;12.20;99.90
7159;DHT22;63175;52.374;13.132;2023-03-23T07:49:04;12.20;99.90
7159;DHT22;63175;52.374;13.132;2023-03-23T07:51:31;12.30;99.90
7159;DHT22;63175;52.374;13.132;2023-03-23T07:53:58;12.30;99.90
7159;DHT22;63175;52.374;13.132;2023-03-23T07:56:26;12.30;99.90
7159;DHT22;63175;52.374;13.132;2023-03-23T07:58:53;12.30;99.90
7159;DHT22;63175;52.374;13.132;2023-03-23T08:01:20;12.30;99.90
7159;DHT22;63175;52.374;13.132;2023-03-23T08:03:48;12.30;99.90
7159;DHT22;63175;52.374;13.132;2023-03-23T08:06:16;12.40;99.90
7159;DHT22;63175;52.374;13.132;2023-03-23T08:08:42;12.40;99.90
7159;DHT22;63175;52.374;13.132;2023-03-23T08:11:09;12.50;99.90
7159;DHT22;63175;52.374;13.132;2023-03-23T08:13:37;12.60;99.90
7159;DHT22;63175;52.374;13.132;2023-03-23T08:16:05;12.70;99.90
7159;DHT22;63175;52.374;13.132;2023-03-23T08:18:35;12.70;99.90
7159;DHT22;63175;52.374;13.132;2023-03-23T08:21:03;12.70;99.90
7159;DHT22;63175;52.374;13.132;2023-03-23T08:23:30;12.70;99.90
7159;DHT22;63175;52.374;13.132;2023-03-23T08:25:58;12.70;99.90
7159;DHT22;63175;52.374;13.132;2023-03-23T08:28:25;12.70;99.90
7159;DHT22;63175;52.374;13.132;2023-03-23T08:30:54;12.60;99.90
7159;DHT22;63175;52.374;13.132;2023-03-23T08:33:21;12.60;99.90
7159;DHT22;63175;52.374;13.132;2023-03-23T08:35:55;12.60;99.90
7159;DHT22;63175;52.374;13.132;2023-03-23T08:38:22;12.60;99.90
7159;DHT22;63175;52.374;13.132;2023-03-23T08:40:49;12.50;99.90
7159;DHT22;63175;52.374;13.132;2023-03-23T08:43:18;12.50;99.90
7159;DHT22;63175;52.374;13.132;2023-03-23T08:45:45;12.50;99.90
7159;DHT22;63175;52.374;13.132;2023-03-23T08:48:13;12.50;99.90
7159;DHT22;63175;52.374;13.132;2023-03-23T08:50:40;12.50;99.90
7159;DHT22;63175;52.374;13.132;2023-03-23T08:53:07;12.60;99.90
7159;DHT22;63175;52.374;13.132;2023-03-23T08:55:34;12.70;99.90
7159;DHT22;63175;52.374;13.132;2023-03-23T08:58:01;12.80;99.90
7159;DHT22;63175;52.374;13.132;2023-03-23T09:00:29;12.90;99.90
7159;DHT22;63175;52.374;13.132;2023-03-23T09:02:56;13.00;99.90
7159;DHT22;63175;52.374;13.132;2023-03-23T09:05:26;13.10;99.90
7159;DHT22;63175;52.374;13.132;2023-03-23T09:07:57;13.30;99.90
7159;DHT22;63175;52.374;13.132;2023-03-23T09:10:25;13.30;99.90
7159;DHT22;63175;52.374;13.132;2023-03-23T09:12:53;13.30;99.90
7159;DHT22;63175;52.374;13.132;2023-03-23T09:15:20;13.30;99.90
7159;DHT22;63175;52.374;13.132;2023-03-23T09:17:49;13.40;99.90
7159;DHT22;63175;52.374;13.132;2023-03-23T09:20:18;13.40;99.90
7159;DHT22;63175;52.374;13.132;2023-03-23T09:22:48;13.40;99.90
7159;DHT22;63175;52.374;13.132;2023-03-23T09:25:17;13.40;99.90
7159;DHT22;63175;52.374;13.132;2023-03-23T09:27:48;13.40;99.90
7159;DHT22;63175;52.374;13.132;2023-03-23T09:30:18;13.40;99.90
7159;DHT22;63175;52.374;13.132;2023-03-23T09:32:46;13.50;99.90
7159;DHT22;63175;52.374;13.132;2023-03-23T09:35:14;13.70;99.90
7159;DHT22;63175;52.374;13.132;2023-03-23T09:37:42;14.00;99.90
7159;DHT22;63175;52.374;13.132;2023-03-23T09:40:14;14.30;99.90
7159;DHT22;63175;52.374;13.132;2023-03-23T09:43:04;14.60;99.90
7159;DHT22;63175;52.374;13.132;2023-03-23T09:45:39;14.80;99.90
7159;DHT22;63175;52.374;13.132;2023-03-23T09:48:29;14.80;99.90
7159;DHT22;63175;52.374;13.132;2023-03-23T09:51:02;14.80;99.90
7159;DHT22;63175;52.374;13.132;2023-03-23T09:53:36;14.80;99.90
7159;DHT22;63175;52.374;13.132;2023-03-23T09:56:12;14.70;99.90
7159;DHT22;63175;52.374;13.132;2023-03-23T09:58:46;14.70;99.90
7159;DHT22;63175;52.374;13.132;2023-03-23T10:01:19;14.60;99.90
7159;DHT22;63175;52.374;13.132;2023-03-23T10:03:46;14.50;99.90
7159;DHT22;63175;52.374;13.132;2023-03-23T10:06:16;14.40;99.90
7159;DHT22;63175;52.374;13.132;2023-03-23T10:08:47;14.40;99.90
7159;DHT22;63175;52.374;13.132;2023-03-23T10:11:23;14.40;99.90
7159;DHT22;63175;52.374;13.132;2023-03-23T10:14:13;14.40;99.90
7159;DHT22;63175;52.374;13.132;2023-03-23T10:16:49;14.30;99.90
7159;DHT22;63175;52.374;13.132;2023-03-23T10:19:25;14.40;99.90
7159;DHT22;63175;52.374;13.132;2023-03-23T10:21:57;14.40;99.90
7159;DHT22;63175;52.374;13.132;2023-03-23T10:24:32;14.40;99.90
7159;DHT22;63175;52.374;13.132;2023-03-23T10:27:10;14.40;99.90
7159;DHT22;63175;52.374;13.132;2023-03-23T10:29:42;14.50;99.90
7159;DHT22;63175;52.374;13.132;2023-03-23T10:32:13;14.60;99.90
7159;DHT22;63175;52.374;13.132;2023-03-23T10:34:43;14.70;99.90
7159;DHT22;63175;52.374;13.132;2023-03-23T10:37:13;14.80;99.90
7159;DHT22;63175;52.374;13.132;2023-03-23T10:39:47;14.80;99.90
7159;DHT22;63175;52.374;13.132;2023-03-23T10:42:26;14.80;99.90
7159;DHT22;63175;52.374;13.132;2023-03-23T10:44:55;14.80;99.90
7159;DHT22;63175;52.374;13.132;2023-03-23T10:47:23;14.70;99.90
7159;DHT22;63175;52.374;13.132;2023-03-23T10:49:53;14.70;99.90
7159;DHT22;63175;52.374;13.132;2023-03-23T10:52:27;14.60;99.90
7159;DHT22;63175;52.374;13.132;2023-03-23T10:54:56;14.60;99.90
7159;DHT22;63175;52.374;13.132;2023-03-23T10:57:27;14.60;99.90
7159;DHT22;63175;52.374;13.132;2023-03-23T11:00:01;14.50;99.90
7159;DHT22;63175;52.374;13.132;2023-03-23T11:02:37;14.50;99.90
7159;DHT22;63175;52.374;13.132;2023-03-23T11:05:09;14.50;99.90
7159;DHT22;63175;52.374;13.132;2023-03-23T11:07:39;14.50;99.90
7159;DHT22;63175;52.374;13.132;2023-03-23T11:10:15;14.50;99.90
7159;DHT22;63175;52.374;13.132;2023-03-23T11:12:45;14.60;99.90
7159;DHT22;63175;52.374;13.132;2023-03-23T11:15:34;14.60;99.90
7159;DHT22;63175;52.374;13.132;2023-03-23T11:18:04;14.60;99.90
7159;DHT22;63175;52.374;13.132;2023-03-23T11:20:35;14.60;99.90
7159;DHT22;63175;52.374;13.132;2023-03-23T11:23:15;14.60;99.90
7159;DHT22;63175;52.374;13.132;2023-03-23T11:26:07;14.60;99.90
7159;DHT22;63175;52.374;13.132;2023-03-23T11:28:37;14.70;99.90
7159;DHT22;63175;52.374;13.132;2023-03-23T11:31:09;14.70;99.90
7159;DHT22;63175;52.374;13.132;2023-03-23T11:33:39;14.70;99.90
7159;DHT22;63175;52.374;13.132;2023-03-23T11:36:07;14.80;99.90
7159;DHT22;63175;52.374;13.132;2023-03-23T11:38:36;14.90;99.90
7159;DHT22;63175;52.374;13.132;2023-03-23T11:41:09;15.00;99.90
7159;DHT22;63175;52.374;13.132;2023-03-23T11:43:43;15.00;99.90
7159;DHT22;63175;52.374;13.132;2023-03-23T11:46:18;15.10;99.90
7159;DHT22;63175;52.374;13.132;2023-03-23T11:48:51;15.20;99.90
7159;DHT22;63175;52.374;13.132;2023-03-23T11:51:24;15.20;99.90
7159;DHT22;63175;52.374;13.132;2023-03-23T11:53:57;15.30;99.90
7159;DHT22;63175;52.374;13.132;2023-03-23T11:56:29;15.30;99.90
7159;DHT22;63175;52.374;13.132;2023-03-23T11:58:58;15.40;99.90
7159;DHT22;63175;52.374;13.132;2023-03-23T12:01:36;15.40;99.90
7159;DHT22;63175;52.374;13.132;2023-03-23T12:04:27;15.50;99.90
7159;DHT22;63175;52.374;13.132;2023-03-23T12:07:05;15.50;99.90
7159;DHT22;63175;52.374;13.132;2023-03-23T12:09:43;15.60;99.90
7159;DHT22;63175;52.374;13.132;2023-03-23T12:12:18;15.60;99.90
7159;DHT22;63175;52.374;13.132;2023-03-23T12:14:54;15.60;99.90
7159;DHT22;63175;52.374;13.132;2023-03-23T12:17:29;15.60;99.90
7159;DHT22;63175;52.374;13.132;2023-03-23T12:20:16;15.60;99.90
7159;DHT22;63175;52.374;13.132;2023-03-23T12:23:05;15.70;99.90
7159;DHT22;63175;52.374;13.132;2023-03-23T12:31:38;15.70;99.90
7159;DHT22;63175;52.374;13.132;2023-03-23T12:34:13;15.70;99.90
7159;DHT22;63175;52.374;13.132;2023-03-23T12:36:51;15.70;99.90
7159;DHT22;63175;52.374;13.132;2023-03-23T12:39:57;15.70;99.90
7159;DHT22;63175;52.374;13.132;2023-03-23T12:42:42;15.70;99.90
7159;DHT22;63175;52.374;13.132;2023-03-23T12:45:18;15.80;99.90
7159;DHT22;63175;52.374;13.132;2023-03-23T12:47:52;15.90;99.90
7159;DHT22;63175;52.374;13.132;2023-03-23T12:50:26;16.00;99.90
7159;DHT22;63175;52.374;13.132;2023-03-23T12:52:58;16.00;99.90
7159;DHT22;63175;52.374;13.132;2023-03-23T12:55:32;16.10;99.90
7159;DHT22;63175;52.374;13.132;2023-03-23T12:58:04;16.10;99.90
7159;DHT22;63175;52.374;13.132;2023-03-23T13:00:46;16.20;99.90
7159;DHT22;63175;52.374;13.132;2023-03-23T13:03:20;16.50;99.90
7159;DHT22;63175;52.374;13.132;2023-03-23T13:05:50;16.80;99.90
7159;DHT22;63175;52.374;13.132;2023-03-23T13:08:23;17.10;99.90
7159;DHT22;63175;52.374;13.132;2023-03-23T13:10:55;17.40;99.90
7159;DHT22;63175;52.374;13.132;2023-03-23T13:13:25;17.80;99.90
7159;DHT22;63175;52.374;13.132;2023-03-23T13:16:02;18.00;99.10
7159;DHT22;63175;52.374;13.132;2023-03-23T13:18:40;18.20;98.10
7159;DHT22;63175;52.374;13.132;2023-03-23T13:21:15;18.50;96.50
7159;DHT22;63175;52.374;13.132;2023-03-23T13:23:48;18.70;95.70
7159;DHT22;63175;52.374;13.132;2023-03-23T13:26:18;18.90;94.00
7159;DHT22;63175;52.374;13.132;2023-03-23T13:28:55;19.10;93.10
7159;DHT22;63175;52.374;13.132;2023-03-23T13:31:25;19.40;91.40
7159;DHT22;63175;52.374;13.132;2023-03-23T13:34:01;19.50;90.10
7159;DHT22;63175;52.374;13.132;2023-03-23T13:36:30;19.60;85.60
7159;DHT22;63175;52.374;13.132;2023-03-23T13:39:00;19.90;86.80
7159;DHT22;63175;52.374;13.132;2023-03-23T13:41:30;20.30;85.50
7159;DHT22;63175;52.374;13.132;2023-03-23T13:44:16;20.60;81.10
7159;DHT22;63175;52.374;13.132;2023-03-23T13:46:55;20.70;78.80
7159;DHT22;63175;52.374;13.132;2023-03-23T13:49:25;20.30;78.20
7159;DHT22;63175;52.374;13.132;2023-03-23T13:52:00;20.00;79.80
7159;DHT22;63175;52.374;13.132;2023-03-23T13:54:32;19.70;77.70
7159;DHT22;63175;52.374;13.132;2023-03-23T13:57:23;19.20;77.80
7159;DHT22;63175;52.374;13.132;2023-03-23T13:59:56;18.80;79.40
7159;DHT22;63175;52.374;13.132;2023-03-23T14:02:36;18.40;81.10
7159;DHT22;63175;52.374;13.132;2023-03-23T14:05:31;18.10;83.60
7159;DHT22;63175;52.374;13.132;2023-03-23T14:08:00;17.80;85.70
7159;DHT22;63175;52.374;13.132;2023-03-23T14:10:34;17.60;87.60
7159;DHT22;63175;52.374;13.132;2023-03-23T14:13:03;17.40;89.20
7159;DHT22;63175;52.374;13.132;2023-03-23T14:15:37;17.20;90.20
7159;DHT22;63175;52.374;13.132;2023-03-23T14:18:06;17.10;90.70
7159;DHT22;63175;52.374;13.132;2023-03-23T14:20:37;17.00;90.90
7159;DHT22;63175;52.374;13.132;2023-03-23T14:23:05;16.80;91.10
7159;DHT22;63175;52.374;13.132;2023-03-23T14:25:32;16.70;91.00
7159;DHT22;63175;52.374;13.132;2023-03-23T14:27:59;16.60;91.10
7159;DHT22;63175;52.374;13.132;2023-03-23T14:30:33;16.50;91.80
7159;DHT22;63175;52.374;13.132;2023-03-23T14:33:04;16.40;92.40
7159;DHT22;63175;52.374;13.132;2023-03-23T14:35:33;16.30;93.30
7159;DHT22;63175;52.374;13.132;2023-03-23T14:38:03;16.20;93.60
7159;DHT22;63175;52.374;13.132;2023-03-23T14:40:31;16.10;94.30
7159;DHT22;63175;52.374;13.132;2023-03-23T14:42:59;16.10;94.70
7159;DHT22;63175;52.374;13.132;2023-03-23T14:45:26;16.10;95.10
7159;DHT22;63175;52.374;13.132;2023-03-23T14:47:55;16.50;95.50
7159;DHT22;63175;52.374;13.132;2023-03-23T14:50:26;17.00;94.80
7159;DHT22;63175;52.374;13.132;2023-03-23T14:52:57;17.20;94.00
7159;DHT22;63175;52.374;13.132;2023-03-23T14:55:26;17.30;92.50
7159;DHT22;63175;52.374;13.132;2023-03-23T14:58:05;17.20;92.00
7159;DHT22;63175;52.374;13.132;2023-03-23T15:00:36;17.10;92.30
7159;DHT22;63175;52.374;13.132;2023-03-23T15:03:05;17.10;92.30
7159;DHT22;63175;52.374;13.132;2023-03-23T15:05:35;17.00;91.60
7159;DHT22;63175;52.374;13.132;2023-03-23T15:08:06;17.00;91.30
7159;DHT22;63175;52.374;13.132;2023-03-23T15:10:35;17.00;90.80
7159;DHT22;63175;52.374;13.132;2023-03-23T15:13:02;17.10;90.60
7159;DHT22;63175;52.374;13.132;2023-03-23T15:15:31;17.10;90.30
7159;DHT22;63175;52.374;13.132;2023-03-23T15:17:59;17.20;90.10
7159;DHT22;63175;52.374;13.132;2023-03-23T15:20:28;17.10;89.40
7159;DHT22;63175;52.374;13.132;2023-03-23T15:22:56;17.10;88.80
7159;DHT22;63175;52.374;13.132;2023-03-23T15:25:29;17.20;88.60
7159;DHT22;63175;52.374;13.132;2023-03-23T15:28:14;17.30;87.40
7159;DHT22;63175;52.374;13.132;2023-03-23T15:30:47;17.40;87.20
7159;DHT22;63175;52.374;13.132;2023-03-23T15:33:15;17.50;85.70
7159;DHT22;63175;52.374;13.132;2023-03-23T15:35:47;17.50;85.10
7159;DHT22;63175;52.374;13.132;2023-03-23T15:38:20;17.50;84.50
7159;DHT22;63175;52.374;13.132;2023-03-23T15:40:50;17.40;84.40
7159;DHT22;63175;52.374;13.132;2023-03-23T15:43:20;17.40;85.60
7159;DHT22;63175;52.374;13.132;2023-03-23T15:45:56;17.40;86.00
7159;DHT22;63175;52.374;13.132;2023-03-23T15:48:26;17.30;83.60
7159;DHT22;63175;52.374;13.132;2023-03-23T15:50:54;17.20;83.50
7159;DHT22;63175;52.374;13.132;2023-03-23T15:53:28;17.20;82.80
7159;DHT22;63175;52.374;13.132;2023-03-23T15:55:58;17.10;82.60
7159;DHT22;63175;52.374;13.132;2023-03-23T15:58:28;17.00;82.30
7159;DHT22;63175;52.374;13.132;2023-03-23T16:00:55;17.00;82.60
7159;DHT22;63175;52.374;13.132;2023-03-23T16:03:25;17.00;82.80